Time;durP1;ratioP1;P1;durP2;ratioP2;P2;SDS_P1;SDS_P2;PMS_P1;PMS_P2;Temp;Humidity;BMP_temperature;BMP_pressure;BME280_temperature;BME280_humidity;BME280_pressure;Samples;Min_cycle;Max_cycle;Signal;HPM_P1;HPM_P2
2021/03/29 00:00:21;;;;;;;2.50;2.20;;;5.80;93.30;;;;;;4975141;28;20179;-77
2021/03/29 00:02:48;;;;;;;4.00;2.30;;;5.80;93.00;;;;;;4974826;28;20178;-75
2021/03/29 00:05:16;;;;;;;4.97;3.07;;;5.80;93.10;;;;;;4974597;28;20662;-75
2021/03/29 00:07:45;;;;;;;3.43;2.67;;;5.70;93.00;;;;;;4973583;28;20181;-75
2021/03/29 00:10:13;;;;;;;3.57;2.30;;;5.70;92.50;;;;;;4973780;28;20661;-75
2021/03/29 00:12:42;;;;;;;3.03;2.20;;;5.70;92.50;;;;;;4974844;28;20203;-75
2021/03/29 00:15:12;;;;;;;3.93;2.20;;;5.60;92.20;;;;;;4974878;28;20200;-75
2021/03/29 00:17:40;;;;;;;4.10;2.37;;;5.60;92.00;;;;;;4974684;28;20677;-75
2021/03/29 00:20:12;;;;;;;3.93;2.00;;;5.50;92.00;;;;;;4974910;28;20173;-75
2021/03/29 00:22:39;;;;;;;6.70;2.30;;;5.40;92.10;;;;;;4974919;28;20177;-75
2021/03/29 00:25:05;;;;;;;3.93;2.03;;;5.40;92.00;;;;;;4974444;28;20279;-75
2021/03/29 00:27:31;;;;;;;3.73;2.23;;;5.40;92.00;;;;;;4974663;28;20224;-75
2021/03/29 00:29:57;;;;;;;3.57;2.33;;;5.40;92.00;;;;;;4977084;28;20184;-75
2021/03/29 00:32:23;;;;;;;2.83;2.23;;;5.40;92.00;;;;;;4978522;28;20662;-75
2021/03/29 00:34:49;;;;;;;3.07;2.03;;;5.40;92.10;;;;;;4978313;28;20622;-75
2021/03/29 00:37:15;;;;;;;3.57;2.23;;;5.40;91.90;;;;;;4978576;28;20316;-75
2021/03/29 00:39:42;;;;;;;6.07;2.20;;;5.40;91.80;;;;;;4978509;28;20180;-75
2021/03/29 00:42:08;;;;;;;4.33;2.47;;;5.30;92.00;;;;;;4977521;28;20184;-75
2021/03/29 00:44:35;;;;;;;2.10;1.90;;;5.30;91.70;;;;;;4978386;28;20642;-75
2021/03/29 00:47:02;;;;;;;3.10;2.40;;;5.30;91.80;;;;;;4978189;28;20555;-75
2021/03/29 00:49:28;;;;;;;2.10;1.60;;;5.30;91.70;;;;;;4978262;28;20191;-75
2021/03/29 00:51:54;;;;;;;3.50;2.30;;;5.30;91.80;;;;;;4978394;28;20451;-75
2021/03/29 00:54:21;;;;;;;4.00;1.90;;;5.30;91.70;;;;;;4976776;28;20181;-76
2021/03/29 00:56:47;;;;;;;4.00;1.90;;;5.30;91.60;;;;;;4977926;28;20265;-75
2021/03/29 00:59:14;;;;;;;2.93;2.20;;;5.20;91.70;;;;;;4976868;28;20542;-75
2021/03/29 01:01:45;;;;;;;2.63;2.07;;;5.20;91.60;;;;;;4978458;28;20459;-76
2021/03/29 01:04:16;;;;;;;3.77;2.17;;;5.20;91.60;;;;;;4978140;28;20168;-75
2021/03/29 01:06:46;;;;;;;3.60;2.00;;;5.20;91.60;;;;;;4976921;28;20448;-76
2021/03/29 01:09:17;;;;;;;2.53;1.83;;;5.20;91.60;;;;;;4977893;28;20973;-75
2021/03/29 01:11:48;;;;;;;3.80;2.40;;;5.20;91.60;;;;;;4978058;28;20443;-75
2021/03/29 01:14:36;;;;;;;2.27;1.80;;;5.20;91.50;;;;;;4977721;28;20257;-75
2021/03/29 01:17:21;;;;;;;4.80;2.10;;;5.10;91.40;;;;;;4975989;28;20216;-75
2021/03/29 01:20:01;;;;;;;2.33;1.87;;;5.10;91.30;;;;;;4977948;28;20156;-76
2021/03/29 01:22:41;;;;;;;2.10;1.90;;;5.00;91.30;;;;;;4976443;28;20541;-76
2021/03/29 01:25:21;;;;;;;7.10;2.37;;;5.00;91.40;;;;;;4977437;28;20435;-76
2021/03/29 01:27:53;;;;;;;5.43;2.00;;;4.90;91.40;;;;;;4976522;28;20411;-76
2021/03/29 01:30:20;;;;;;;3.37;2.00;;;4.80;91.60;;;;;;4977729;28;20252;-76
2021/03/29 01:32:46;;;;;;;3.37;2.43;;;4.70;91.60;;;;;;4977604;28;20534;-76
2021/03/29 01:35:27;;;;;;;2.10;1.90;;;4.70;91.80;;;;;;4976131;28;20246;-76
2021/03/29 01:37:54;;;;;;;3.47;2.40;;;4.70;91.80;;;;;;4977867;28;20423;-75
2021/03/29 01:40:21;;;;;;;2.50;2.13;;;4.60;92.10;;;;;;4976854;28;21029;-76
2021/03/29 01:42:48;;;;;;;3.37;2.17;;;4.60;92.00;;;;;;4977245;28;20415;-75
2021/03/29 01:45:15;;;;;;;2.93;2.00;;;4.60;92.00;;;;;;4977193;28;20195;-75
2021/03/29 01:47:41;;;;;;;2.53;1.87;;;4.50;92.30;;;;;;4975932;28;20190;-75
2021/03/29 01:50:09;;;;;;;2.73;1.97;;;4.50;92.20;;;;;;4977138;28;20547;-75
2021/03/29 01:52:35;;;;;;;2.90;2.00;;;4.50;92.20;;;;;;4975806;28;20238;-75
2021/03/29 01:55:04;;;;;;;3.20;1.97;;;4.50;92.00;;;;;;4976882;28;20498;-75
2021/03/29 01:57:29;;;;;;;2.80;2.30;;;4.60;92.00;;;;;;4976925;28;20560;-75
2021/03/29 01:59:55;;;;;;;1.87;1.73;;;4.60;91.90;;;;;;4977252;28;20184;-75
2021/03/29 02:02:22;;;;;;;2.37;1.80;;;4.60;91.60;;;;;;4975687;28;20258;-75
2021/03/29 02:04:48;;;;;;;2.37;2.10;;;4.60;91.80;;;;;;4975434;28;20718;-76
2021/03/29 02:07:15;;;;;;;3.67;1.90;;;4.70;91.30;;;;;;4976829;28;20447;-75
2021/03/29 02:09:41;;;;;;;2.63;1.90;;;4.70;91.30;;;;;;4976789;28;20424;-75
2021/03/29 02:12:08;;;;;;;2.17;1.87;;;4.70;91.30;;;;;;4975499;28;20467;-75
2021/03/29 02:14:36;;;;;;;6.03;2.13;;;4.70;91.30;;;;;;4976578;28;20474;-75
2021/03/29 02:17:05;;;;;;;2.70;2.10;;;4.60;91.40;;;;;;4975398;28;20479;-75
2021/03/29 02:19:32;;;;;;;2.00;1.90;;;4.60;91.50;;;;;;4976622;28;20411;-75
2021/03/29 02:21:58;;;;;;;2.87;1.97;;;4.60;91.80;;;;;;4976648;28;20419;-75
2021/03/29 02:24:26;;;;;;;5.17;2.20;;;4.60;91.70;;;;;;4976404;28;20188;-75
2021/03/29 02:26:53;;;;;;;2.20;1.87;;;4.40;91.80;;;;;;4976422;28;20198;-75
2021/03/29 02:29:20;;;;;;;2.70;1.83;;;4.40;91.90;;;;;;4976430;28;20544;-75
2021/03/29 02:31:49;;;;;;;6.63;3.60;;;4.40;92.50;;;;;;4976356;28;20610;-75
2021/03/29 02:34:15;;;;;;;6.00;3.80;;;4.40;92.20;;;;;;4974979;28;20474;-75
2021/03/29 02:36:42;;;;;;;12.27;6.27;;;4.40;92.20;;;;;;4975019;28;20442;-75
2021/03/29 02:39:08;;;;;;;17.63;9.20;;;4.40;92.50;;;;;;4976474;28;20407;-75
2021/03/29 02:41:34;;;;;;;26.60;12.57;;;4.30;92.50;;;;;;4975044;28;20941;-75
2021/03/29 02:44:00;;;;;;;62.03;24.07;;;4.30;92.50;;;;;;4976127;28;20183;-75
2021/03/29 02:46:31;;;;;;;91.73;31.37;;;4.20;92.60;;;;;;4975967;28;20188;-75
2021/03/29 02:49:03;;;;;;;78.77;28.03;;;4.20;92.80;;;;;;4976010;28;20502;-75
2021/03/29 02:51:31;;;;;;;46.17;16.73;;;4.20;92.70;;;;;;4975201;28;21008;-75
2021/03/29 02:54:00;;;;;;;27.90;12.47;;;4.20;92.80;;;;;;4975856;28;20881;-75
2021/03/29 02:56:28;;;;;;;24.07;11.17;;;4.20;93.30;;;;;;4975634;28;20216;-76
2021/03/29 02:58:59;;;;;;;11.97;7.73;;;4.20;93.00;;;;;;4975892;28;20416;-75
2021/03/29 03:01:27;;;;;;;5.57;3.40;;;4.10;92.80;;;;;;4975877;28;20403;-75
2021/03/29 03:03:53;;;;;;;3.53;2.37;;;4.10;92.80;;;;;;4974531;28;20661;-75
2021/03/29 03:06:28;;;;;;;3.20;2.60;;;4.10;93.20;;;;;;4974279;28;20824;-75
2021/03/29 03:08:54;;;;;;;4.43;2.07;;;4.10;93.10;;;;;;4976118;28;20429;-75
2021/03/29 03:11:21;;;;;;;4.33;2.33;;;4.10;93.20;;;;;;4975611;28;20511;-75
2021/03/29 03:13:48;;;;;;;2.10;1.80;;;4.00;93.20;;;;;;4975604;28;20462;-75
2021/03/29 03:16:14;;;;;;;3.10;2.20;;;4.10;93.30;;;;;;4974035;28;20942;-75
2021/03/29 03:18:41;;;;;;;2.40;2.20;;;4.10;93.00;;;;;;4975765;28;20412;-75
2021/03/29 03:21:07;;;;;;;4.33;2.30;;;4.00;93.10;;;;;;4975722;28;20423;-75
2021/03/29 03:23:33;;;;;;;2.70;2.40;;;3.90;92.90;;;;;;4975708;28;20412;-75
2021/03/29 03:25:59;;;;;;;2.50;2.23;;;3.90;93.30;;;;;;4975143;28;20432;-75
2021/03/29 03:28:26;;;;;;;2.90;2.40;;;3.90;93.50;;;;;;4975325;28;20427;-75
2021/03/29 03:30:55;;;;;;;5.63;2.07;;;3.90;94.40;;;;;;4975491;28;20172;-75
2021/03/29 03:33:24;;;;;;;5.13;2.57;;;3.80;94.20;;;;;;4975488;28;20479;-75
2021/03/29 03:35:52;;;;;;;4.47;2.53;;;3.80;94.80;;;;;;4974994;28;20951;-75
2021/03/29 03:38:30;;;;;;;3.60;2.23;;;3.70;94.80;;;;;;4975499;28;20419;-75
2021/03/29 03:41:02;;;;;;;2.13;1.87;;;3.60;95.10;;;;;;4975489;28;20171;-75
2021/03/29 03:43:30;;;;;;;2.53;2.20;;;3.50;96.50;;;;;;4975298;28;20606;-75
2021/03/29 03:46:03;;;;;;;2.67;2.07;;;3.40;96.90;;;;;;4973614;28;20200;-75
2021/03/29 03:48:30;;;;;;;4.97;1.90;;;3.30;97.80;;;;;;4975044;28;20227;-75
2021/03/29 03:50:56;;;;;;;3.67;2.13;;;3.20;99.90;;;;;;4975012;28;20175;-75
2021/03/29 03:53:23;;;;;;;3.23;2.43;;;3.10;99.90;;;;;;4974909;28;20662;-75
2021/03/29 03:55:53;;;;;;;4.53;2.50;;;3.10;99.90;;;;;;4974640;28;20578;-75
2021/03/29 03:58:21;;;;;;;4.00;2.40;;;3.00;99.90;;;;;;4973701;28;20713;-75
2021/03/29 04:00:47;;;;;;;2.63;2.30;;;3.00;99.90;;;;;;4973626;28;20700;-75
2021/03/29 04:03:13;;;;;;;3.70;2.23;;;3.00;99.90;;;;;;4974639;28;20219;-75
2021/03/29 04:05:39;;;;;;;3.37;2.10;;;3.00;99.90;;;;;;4974672;28;20201;-75
2021/03/29 04:08:05;;;;;;;3.77;2.20;;;3.00;99.00;;;;;;4974801;28;20181;-75
2021/03/29 04:13:10;;;;;;;2.47;1.77;;;3.00;97.00;;;;;;4974749;28;20184;-75
2021/03/29 04:15:36;;;;;;;3.73;1.77;;;3.10;97.00;;;;;;4973271;28;20264;-75
2021/03/29 04:18:02;;;;;;;3.40;1.70;;;3.00;96.70;;;;;;4973439;28;20176;-75
2021/03/29 04:20:27;;;;;;;2.93;1.73;;;3.00;96.50;;;;;;4973567;28;20191;-75
2021/03/29 04:22:53;;;;;;;3.20;1.70;;;3.10;96.30;;;;;;4974674;28;20181;-75
2021/03/29 04:25:19;;;;;;;2.77;1.80;;;3.10;96.30;;;;;;4974425;28;20278;-75
2021/03/29 04:27:44;;;;;;;3.40;1.73;;;3.10;96.30;;;;;;4974582;28;20260;-75
2021/03/29 04:30:12;;;;;;;2.57;1.70;;;3.20;96.30;;;;;;4974601;28;20224;-75
2021/03/29 04:32:39;;;;;;;3.30;2.10;;;3.10;96.10;;;;;;4973210;28;20205;-75
2021/03/29 04:35:05;;;;;;;3.70;1.97;;;3.10;96.30;;;;;;4974537;28;20577;-75
2021/03/29 04:37:31;;;;;;;2.40;1.97;;;3.10;96.30;;;;;;4974748;28;20203;-76
2021/03/29 04:39:57;;;;;;;6.00;1.90;;;3.10;96.60;;;;;;4973912;28;20669;-76
2021/03/29 04:42:23;;;;;;;4.73;2.27;;;3.00;96.60;;;;;;4974605;28;20173;-76
2021/03/29 04:44:48;;;;;;;2.67;2.03;;;3.00;96.90;;;;;;4974276;28;20577;-75
2021/03/29 04:47:14;;;;;;;4.33;2.70;;;2.80;97.00;;;;;;4973385;28;20275;-76
2021/03/29 04:49:41;;;;;;;5.70;2.40;;;3.00;97.40;;;;;;4974630;28;20264;-75
2021/03/29 04:52:07;;;;;;;4.13;2.70;;;2.90;97.30;;;;;;4974460;28;20196;-75
2021/03/29 04:54:33;;;;;;;2.63;1.93;;;2.80;97.70;;;;;;4974299;28;20181;-75
2021/03/29 04:56:58;;;;;;;4.90;2.23;;;2.70;98.00;;;;;;4974239;28;20752;-75
2021/03/29 04:59:24;;;;;;;2.80;2.07;;;2.70;98.60;;;;;;4974607;28;20251;-75
2021/03/29 05:01:50;;;;;;;2.93;1.97;;;2.70;98.60;;;;;;4974367;28;20174;-75
2021/03/29 05:04:16;;;;;;;2.23;1.83;;;2.60;98.90;;;;;;4974623;28;20182;-75
2021/03/29 05:06:41;;;;;;;5.40;2.53;;;2.70;99.20;;;;;;4974153;28;20202;-75
2021/03/29 05:09:08;;;;;;;2.70;2.40;;;2.60;99.50;;;;;;4974361;28;20173;-75
2021/03/29 05:11:51;;;;;;;3.60;2.70;;;2.60;99.90;;;;;;4974689;28;20205;-75
2021/03/29 05:14:17;;;;;;;2.63;2.30;;;2.70;99.90;;;;;;4974527;28;20184;-75
2021/03/29 05:16:43;;;;;;;7.37;2.50;;;2.70;99.90;;;;;;4977303;28;20686;-75
2021/03/29 05:19:10;;;;;;;9.47;3.23;;;2.70;99.30;;;;;;4977778;28;20188;-75
2021/03/29 05:21:36;;;;;;;6.57;3.00;;;2.70;99.30;;;;;;4978096;28;20206;-75
2021/03/29 05:24:02;;;;;;;8.47;2.67;;;2.70;99.00;;;;;;4977605;28;20180;-75
2021/03/29 05:26:28;;;;;;;7.33;2.80;;;2.70;98.30;;;;;;4977586;28;20204;-75
2021/03/29 05:28:54;;;;;;;4.30;2.20;;;2.70;97.80;;;;;;4954228;28;20231;-76
2021/03/29 05:31:20;;;;;;;2.03;1.73;;;2.80;97.40;;;;;;4977416;28;20724;-76
2021/03/29 05:33:46;;;;;;;4.10;2.20;;;2.90;97.40;;;;;;4977348;28;20173;-76
2021/03/29 05:36:13;;;;;;;5.33;2.13;;;2.90;97.20;;;;;;4976063;28;20229;-75
2021/03/29 05:38:44;;;;;;;3.17;1.87;;;2.90;97.10;;;;;;4977734;28;20169;-75
2021/03/29 05:41:14;;;;;;;3.23;2.30;;;2.90;97.20;;;;;;4977398;28;20310;-76
2021/03/29 05:43:42;;;;;;;2.97;2.43;;;3.00;97.20;;;;;;4976180;28;20183;-75
2021/03/29 05:46:08;;;;;;;4.77;1.83;;;3.00;97.30;;;;;;4977133;28;20197;-75
2021/03/29 05:48:35;;;;;;;3.80;1.87;;;3.00;97.30;;;;;;4977347;28;20704;-75
2021/03/29 05:51:02;;;;;;;3.40;1.87;;;3.10;97.10;;;;;;4977242;28;20164;-75
2021/03/29 05:53:28;;;;;;;3.17;1.90;;;3.10;96.90;;;;;;4977200;28;20207;-75
2021/03/29 05:55:55;;;;;;;3.77;2.33;;;3.20;96.40;;;;;;4975655;28;20634;-76
2021/03/29 06:00:51;;;;;;;2.90;1.97;;;3.50;95.50;;;;;;4977390;28;20235;-76
2021/03/29 06:03:27;;;;;;;2.50;1.67;;;3.60;95.10;;;;;;4977094;28;20260;-75
2021/03/29 06:05:55;;;;;;;4.40;2.03;;;3.70;94.40;;;;;;4975449;28;20204;-75
2021/03/29 06:08:21;;;;;;;2.70;1.63;;;3.80;94.20;;;;;;4977549;28;20613;-75
2021/03/29 06:10:50;;;;;;;2.13;1.93;;;3.90;93.90;;;;;;4975726;28;20186;-75
2021/03/29 06:13:21;;;;;;;3.17;2.10;;;3.90;93.60;;;;;;4976744;28;20203;-75
2021/03/29 06:15:59;;;;;;;3.50;2.20;;;4.00;93.40;;;;;;4976583;28;20243;-76
2021/03/29 06:18:25;;;;;;;3.93;2.23;;;4.10;93.00;;;;;;4976515;28;20248;-75
2021/03/29 06:21:00;;;;;;;7.50;2.27;;;4.30;92.90;;;;;;4975840;28;20312;-75
2021/03/29 06:23:26;;;;;;;8.83;2.23;;;4.30;92.80;;;;;;4975703;28;20181;-77
2021/03/29 06:25:52;;;;;;;3.07;2.13;;;4.40;92.20;;;;;;4975390;28;20288;-75
2021/03/29 06:28:26;;;;;;;4.13;2.33;;;4.50;91.90;;;;;;4974278;28;20215;-75
2021/03/29 06:30:52;;;;;;;8.10;2.33;;;4.60;91.30;;;;;;4975681;28;20255;-75
2021/03/29 06:33:18;;;;;;;2.77;1.83;;;4.70;91.20;;;;;;4975500;28;20359;-75
2021/03/29 06:36:01;;;;;;;3.00;1.70;;;4.70;90.70;;;;;;4976242;28;20205;-75
2021/03/29 06:38:33;;;;;;;2.23;1.90;;;4.80;90.60;;;;;;4976493;28;20220;-75
2021/03/29 06:41:00;;;;;;;3.87;2.10;;;4.90;90.50;;;;;;4975063;28;20186;-75
2021/03/29 06:43:31;;;;;;;4.00;1.93;;;4.90;90.30;;;;;;4976327;28;20276;-77
2021/03/29 06:45:58;;;;;;;3.33;2.10;;;5.00;90.10;;;;;;4976581;28;20255;-76
2021/03/29 06:48:27;;;;;;;5.57;2.00;;;5.00;90.10;;;;;;4976527;28;20181;-77
2021/03/29 06:51:13;;;;;;;3.33;2.27;;;5.10;90.30;;;;;;4975341;28;20694;-76
2021/03/29 06:53:40;;;;;;;2.10;1.80;;;5.20;90.20;;;;;;4974948;28;20187;-76
2021/03/29 06:56:24;;;;;;;3.40;2.10;;;5.30;90.00;;;;;;4975737;28;20214;-76
2021/03/29 06:58:56;;;;;;;4.67;2.70;;;5.40;89.60;;;;;;4976037;28;20675;-76
2021/03/29 07:01:25;;;;;;;3.50;2.13;;;5.60;89.10;;;;;;4976366;28;20162;-77
2021/03/29 07:03:52;;;;;;;7.37;2.30;;;5.80;88.50;;;;;;4976219;28;20180;-76
2021/03/29 07:06:28;;;;;;;1.83;1.73;;;6.00;87.60;;;;;;4975641;28;20194;-76
2021/03/29 07:09:08;;;;;;;5.53;2.10;;;6.20;85.80;;;;;;4976625;28;20541;-78
2021/03/29 07:11:35;;;;;;;2.60;1.90;;;6.40;85.40;;;;;;4975843;28;20181;-77
2021/03/29 07:14:05;;;;;;;3.40;2.40;;;6.60;85.00;;;;;;4975711;28;20187;-77
2021/03/29 07:16:32;;;;;;;2.97;2.40;;;6.90;83.90;;;;;;4974358;28;20222;-76
2021/03/29 07:19:03;;;;;;;3.90;2.60;;;7.30;83.80;;;;;;4975799;28;20171;-77
2021/03/29 07:21:29;;;;;;;4.17;2.63;;;7.60;83.10;;;;;;4974427;28;20187;-77
2021/03/29 07:24:07;;;;;;;3.40;2.00;;;8.10;80.70;;;;;;4975825;28;20215;-75
2021/03/29 07:26:52;;;;;;;5.63;2.23;;;8.80;80.00;;;;;;4974576;28;20258;-75
2021/03/29 07:29:26;;;;;;;2.93;1.73;;;9.80;74.20;;;;;;4974291;28;20623;-75
2021/03/29 07:31:54;;;;;;;3.57;1.63;;;10.40;68.20;;;;;;4975721;28;20200;-75
2021/03/29 07:34:48;;;;;;;2.87;2.10;;;10.90;65.70;;;;;;4975201;28;20184;-75
2021/03/29 07:37:29;;;;;;;4.33;2.00;;;11.40;62.90;;;;;;4975316;28;20244;-75
2021/03/29 07:39:56;;;;;;;3.30;1.80;;;11.90;60.20;;;;;;4975051;28;20638;-75
2021/03/29 07:42:24;;;;;;;1.90;1.63;;;12.00;58.30;;;;;;4975561;28;20176;-75
2021/03/29 07:45:01;;;;;;;2.80;2.00;;;12.40;58.10;;;;;;4974928;28;20539;-75
2021/03/29 07:47:46;;;;;;;2.30;1.70;;;13.20;56.90;;;;;;4975186;28;20262;-75
2021/03/29 07:50:22;;;;;;;2.40;1.73;;;13.90;55.20;;;;;;4975065;28;20585;-75
2021/03/29 07:52:50;;;;;;;3.10;1.43;;;14.20;53.70;;;;;;4975015;28;20200;-76
2021/03/29 07:55:30;;;;;;;2.97;1.70;;;14.60;51.40;;;;;;4975005;28;20200;-76
2021/03/29 07:57:55;;;;;;;2.10;1.60;;;14.70;50.20;;;;;;4975343;28;20214;-76
2021/03/29 08:00:24;;;;;;;2.90;1.73;;;15.10;50.60;;;;;;4975204;28;20638;-76
2021/03/29 08:02:50;;;;;;;4.03;1.83;;;15.80;50.30;;;;;;4975018;28;20188;-76
2021/03/29 08:05:34;;;;;;;2.53;1.93;;;16.50;51.80;;;;;;4974852;28;20198;-75
2021/03/29 08:08:02;;;;;;;3.17;1.83;;;17.10;50.10;;;;;;4973569;28;20173;-75
2021/03/29 08:11:14;;;;;;;4.83;2.07;;;17.30;50.60;;;;;;4974886;28;20213;-75
2021/03/29 08:13:44;;;;;;;4.93;2.27;;;17.40;49.70;;;;;;4972911;28;20205;-76
2021/03/29 08:16:12;;;;;;;2.17;1.60;;;18.00;51.00;;;;;;4973513;28;20277;-75
2021/03/29 08:19:17;;;;;;;6.67;1.60;;;18.20;47.30;;;;;;4973628;28;20278;-76
2021/03/29 08:22:02;;;;;;;8.53;2.10;;;18.30;47.90;;;;;;4974927;28;20181;-76
2021/03/29 08:24:41;;;;;;;3.80;1.70;;;18.80;47.00;;;;;;4974685;28;20611;-76
2021/03/29 08:27:20;;;;;;;3.97;2.00;;;18.90;46.90;;;;;;4975106;28;20224;-75
2021/03/29 08:29:48;;;;;;;3.50;1.70;;;18.60;46.00;;;;;;4975139;28;20226;-75
2021/03/29 08:32:25;;;;;;;3.93;1.87;;;18.60;47.40;;;;;;4975009;28;20565;-76
2021/03/29 08:35:00;;;;;;;2.10;1.73;;;19.00;47.60;;;;;;4973318;28;20172;-75
2021/03/29 08:37:54;;;;;;;5.70;2.10;;;19.40;47.90;;;;;;4975151;28;20251;-75
2021/03/29 08:40:29;;;;;;;6.87;1.93;;;19.70;46.00;;;;;;4974932;28;20215;-76
2021/03/29 08:43:00;;;;;;;2.93;1.73;;;19.80;46.70;;;;;;4974847;28;20626;-76
2021/03/29 08:45:27;;;;;;;6.70;2.00;;;20.10;47.50;;;;;;4973331;28;20299;-76
2021/03/29 08:47:55;;;;;;;4.17;2.00;;;19.80;47.00;;;;;;4974640;28;20231;-76
2021/03/29 08:50:26;;;;;;;3.37;1.93;;;19.70;46.70;;;;;;4975889;28;20177;-75
2021/03/29 08:53:03;;;;;;;3.10;1.87;;;19.40;46.80;;;;;;4977078;28;20229;-76
2021/03/29 08:55:37;;;;;;;2.80;2.30;;;19.10;46.30;;;;;;4978303;28;20671;-76
2021/03/29 08:58:04;;;;;;;3.10;2.00;;;19.10;48.60;;;;;;4977101;28;20579;-77
2021/03/29 09:00:39;;;;;;;3.90;1.87;;;19.10;46.80;;;;;;4978352;28;20177;-76
2021/03/29 09:03:15;;;;;;;2.00;1.80;;;19.50;50.10;;;;;;4978622;28;20184;-76
2021/03/29 09:05:41;;;;;;;2.00;1.80;;;19.70;47.50;;;;;;4976708;28;20210;-76
2021/03/29 09:08:11;;;;;;;2.33;1.63;;;19.80;46.10;;;;;;4977956;28;20183;-76
2021/03/29 09:10:37;;;;;;;2.37;1.70;;;19.70;47.70;;;;;;4978385;28;20247;-76
2021/03/29 09:13:05;;;;;;;2.33;1.60;;;19.70;45.80;;;;;;4976615;28;20216;-77
2021/03/29 09:15:39;;;;;;;2.60;1.53;;;19.50;48.10;;;;;;4976510;28;20203;-76
2021/03/29 09:18:10;;;;;;;4.80;2.10;;;18.50;44.80;;;;;;4978183;28;20654;-76
2021/03/29 09:20:51;;;;;;;2.47;1.87;;;17.40;46.50;;;;;;4976874;28;20184;-76
2021/03/29 09:23:22;;;;;;;3.30;1.63;;;16.70;50.60;;;;;;4978172;28;20201;-76
2021/03/29 09:25:49;;;;;;;2.90;1.90;;;16.30;48.30;;;;;;4977863;28;20543;-75
2021/03/29 09:28:38;;;;;;;6.17;2.00;;;16.30;50.10;;;;;;4977794;28;20181;-75
2021/03/29 09:31:14;;;;;;;2.23;1.70;;;16.40;52.40;;;;;;4978006;28;20526;-76
2021/03/29 09:33:43;;;;;;;1.70;1.50;;;16.50;54.70;;;;;;4978245;28;20191;-76
2021/03/29 09:36:14;;;;;;;3.83;2.10;;;16.60;52.00;;;;;;4977303;28;20232;-76
2021/03/29 09:38:44;;;;;;;2.20;2.00;;;16.60;50.30;;;;;;4978190;28;20203;-76
2021/03/29 09:41:22;;;;;;;4.40;1.97;;;16.80;53.10;;;;;;4977539;28;20201;-75
2021/03/29 09:43:50;;;;;;;4.40;1.80;;;17.40;53.10;;;;;;4977514;28;20240;-76
2021/03/29 09:46:17;;;;;;;4.73;1.70;;;18.20;53.60;;;;;;4975773;28;20203;-76
2021/03/29 09:48:43;;;;;;;5.13;2.73;;;18.90;48.20;;;;;;4976037;28;20179;-76
2021/03/29 09:51:23;;;;;;;2.67;1.80;;;19.20;50.10;;;;;;4975908;28;20175;-76
2021/03/29 09:53:49;;;;;;;4.47;1.83;;;19.10;50.50;;;;;;4977654;28;20180;-76
2021/03/29 09:56:26;;;;;;;2.00;1.80;;;18.90;48.10;;;;;;4977065;28;20578;-76
2021/03/29 09:58:52;;;;;;;2.83;2.30;;;18.20;46.10;;;;;;4977787;28;20281;-76
2021/03/29 10:01:23;;;;;;;4.13;2.10;;;18.40;48.50;;;;;;4977110;28;20259;-76
2021/03/29 10:03:58;;;;;;;2.10;1.83;;;18.60;47.80;;;;;;4977502;28;20525;-76
2021/03/29 10:06:26;;;;;;;3.83;2.03;;;18.90;49.50;;;;;;4975468;28;20206;-76
2021/03/29 10:09:03;;;;;;;4.07;2.00;;;19.50;50.90;;;;;;4975741;28;20587;-77
2021/03/29 10:11:43;;;;;;;3.90;1.77;;;20.10;51.30;;;;;;4977066;28;20258;-76
2021/03/29 10:14:09;;;;;;;5.57;1.60;;;19.80;43.30;;;;;;4975509;28;20181;-77
2021/03/29 10:16:43;;;;;;;3.93;1.50;;;19.10;41.40;;;;;;4976896;28;20197;-76
2021/03/29 10:19:14;;;;;;;1.80;1.57;;;18.90;41.90;;;;;;4974425;28;20230;-76
2021/03/29 10:22:14;;;;;;;1.60;1.50;;;18.90;42.00;;;;;;4981114;28;20186;-76
2021/03/29 10:25:30;;;;;;;3.23;1.80;;;19.10;42.00;;;;;;4996412;28;20209;-77
2021/03/29 10:27:56;;;;;;;3.87;1.40;;;19.60;44.40;;;;;;4996088;28;20240;-77
2021/03/29 10:30:28;;;;;;;3.53;1.97;;;19.60;40.90;;;;;;4996089;28;20175;-76
2021/03/29 10:32:55;;;;;;;3.70;1.50;;;19.70;44.10;;;;;;4996030;28;20282;-77
2021/03/29 10:35:23;;;;;;;4.27;2.07;;;19.90;41.90;;;;;;4995886;28;20196;-77
2021/03/29 10:37:49;;;;;;;4.40;1.73;;;20.30;42.60;;;;;;4995937;28;20259;-77
2021/03/29 10:40:16;;;;;;;2.13;1.67;;;20.40;41.60;;;;;;4996513;28;20592;-77
2021/03/29 10:42:41;;;;;;;2.73;1.30;;;20.00;40.20;;;;;;4996190;28;20578;-77
2021/03/29 10:45:11;;;;;;;2.23;1.77;;;19.90;42.00;;;;;;4994187;28;20688;-77
2021/03/29 10:47:38;;;;;;;3.90;1.80;;;19.90;41.10;;;;;;4996839;28;20185;-80
2021/03/29 10:50:06;;;;;;;3.73;1.80;;;19.70;41.30;;;;;;4995704;28;20185;-78
2021/03/29 10:52:31;;;;;;;3.43;1.60;;;19.60;39.10;;;;;;4995482;28;20235;-76
2021/03/29 10:54:57;;;;;;;2.90;1.60;;;19.70;43.50;;;;;;4995135;28;20187;-75
2021/03/29 10:57:23;;;;;;;2.17;1.40;;;20.10;45.90;;;;;;4995421;28;20221;-80
2021/03/29 10:59:48;;;;;;;3.37;1.60;;;20.30;41.40;;;;;;4993879;28;20168;-76
2021/03/29 11:02:14;;;;;;;3.03;1.60;;;20.40;40.40;;;;;;4993678;28;20687;-76
2021/03/29 11:04:40;;;;;;;3.83;1.60;;;20.10;40.20;;;;;;4993443;28;20182;-76
2021/03/29 11:07:06;;;;;;;8.50;7.70;;;19.40;41.70;;;;;;4992111;28;20215;-76
2021/03/29 11:09:32;;;;;;;3.47;1.80;;;19.40;41.80;;;;;;4992580;28;20181;-76
2021/03/29 11:11:58;;;;;;;4.90;2.00;;;19.40;43.30;;;;;;4994144;28;20206;-76
2021/03/29 11:14:24;;;;;;;5.17;2.00;;;19.60;40.90;;;;;;4994243;28;20180;-76
2021/03/29 11:16:52;;;;;;;3.13;1.70;;;20.10;41.80;;;;;;4993973;28;20203;-77
2021/03/29 11:19:19;;;;;;;3.13;1.97;;;20.70;38.90;;;;;;4994018;28;20253;-76
2021/03/29 11:21:46;;;;;;;2.80;1.77;;;21.00;41.10;;;;;;4995071;28;20184;-76
2021/03/29 11:24:12;;;;;;;5.87;2.00;;;21.40;37.50;;;;;;4994767;28;20217;-76
2021/03/29 11:26:38;;;;;;;2.80;1.20;;;21.40;38.30;;;;;;4994834;28;20219;-76
2021/03/29 11:29:04;;;;;;;5.50;1.90;;;21.50;36.70;;;;;;4995130;28;20178;-77
2021/03/29 11:31:30;;;;;;;4.40;2.30;;;21.20;35.40;;;;;;4995393;28;20181;-77
2021/03/29 11:33:56;;;;;;;3.77;1.50;;;21.00;35.70;;;;;;4995528;28;20587;-77
2021/03/29 11:36:22;;;;;;;3.87;1.90;;;21.20;36.20;;;;;;4993714;28;20204;-76
2021/03/29 11:38:48;;;;;;;10.90;2.40;;;21.30;36.90;;;;;;4993691;28;20178;-77
2021/03/29 11:41:15;;;;;;;8.03;2.00;;;21.50;37.30;;;;;;4995912;28;20260;-77
2021/03/29 11:43:40;;;;;;;1.93;1.67;;;21.90;36.30;;;;;;5027931;28;20287;-77
2021/03/29 11:46:06;;;;;;;3.50;1.87;;;21.70;34.60;;;;;;4995173;28;20261;-77
2021/03/29 11:48:32;;;;;;;4.00;1.80;;;21.50;35.90;;;;;;4994177;28;20314;-77
2021/03/29 11:50:58;;;;;;;4.10;1.90;;;21.70;36.10;;;;;;4995431;28;20281;-77
2021/03/29 11:53:25;;;;;;;3.33;1.60;;;21.90;36.50;;;;;;4994912;28;20291;-77
2021/03/29 11:55:51;;;;;;;3.10;1.80;;;22.50;36.50;;;;;;4993110;28;20212;-76
2021/03/29 11:58:16;;;;;;;4.00;1.63;;;22.40;37.20;;;;;;4994768;28;20179;-76
2021/03/29 12:05:52;;;;;;;2.63;1.80;;;23.30;37.60;;;;;;4994527;28;20270;-76
2021/03/29 12:13:54;;;;;;;3.23;2.13;;;23.40;34.10;;;;;;4993688;28;20207;-77
2021/03/29 12:16:20;;;;;;;2.43;1.33;;;23.60;37.50;;;;;;4993422;28;20341;-77
2021/03/29 12:18:52;;;;;;;4.73;2.07;;;23.80;30.70;;;;;;4994635;28;20187;-77
2021/03/29 12:21:37;;;;;;;6.63;2.27;;;23.70;32.80;;;;;;4992934;28;20629;-77
2021/03/29 12:24:10;;;;;;;3.33;2.00;;;23.90;34.30;;;;;;4995742;28;20169;-77
2021/03/29 12:26:36;;;;;;;1.97;1.23;;;24.40;35.40;;;;;;4999671;28;20200;-77
2021/03/29 12:29:05;;;;;;;2.17;1.97;;;24.40;32.40;;;;;;5001002;28;20173;-76
2021/03/29 12:31:35;;;;;;;2.93;1.60;;;24.60;34.40;;;;;;4999513;28;20654;-76
2021/03/29 12:34:02;;;;;;;1.83;1.60;;;24.50;32.20;;;;;;5000787;28;20574;-76
2021/03/29 12:36:33;;;;;;;2.43;1.70;;;24.90;37.00;;;;;;4999389;28;20204;-77
2021/03/29 12:39:22;;;;;;;2.33;1.80;;;24.90;33.30;;;;;;4999535;28;20169;-77
2021/03/29 12:41:53;;;;;;;2.77;1.50;;;24.90;33.40;;;;;;5001217;28;20165;-77
2021/03/29 12:44:19;;;;;;;4.77;2.10;;;25.10;31.10;;;;;;5000580;28;20172;-77
2021/03/29 12:46:49;;;;;;;3.80;1.60;;;25.30;30.90;;;;;;5001504;28;20207;-76
2021/03/29 12:49:16;;;;;;;1.77;1.20;;;25.30;30.20;;;;;;5032496;28;20187;-77
2021/03/29 12:51:43;;;;;;;4.23;1.90;;;25.30;32.50;;;;;;5001011;28;20205;-77
2021/03/29 12:54:20;;;;;;;2.30;1.30;;;25.80;30.10;;;;;;5001794;28;20182;-77
2021/03/29 12:56:45;;;;;;;2.27;1.50;;;24.80;28.80;;;;;;5000757;28;20205;-77
2021/03/29 12:59:11;;;;;;;7.07;1.63;;;24.50;30.60;;;;;;5000645;28;20173;-77
2021/03/29 13:01:38;;;;;;;1.77;1.27;;;25.00;31.20;;;;;;5000266;28;20186;-76
2021/03/29 13:07:12;;;;;;;3.30;1.60;;;25.00;29.70;;;;;;4998123;28;20550;-77
2021/03/29 13:09:55;;;;;;;3.90;1.40;;;25.60;29.20;;;;;;4998203;28;20180;-74
2021/03/29 13:12:22;;;;;;;4.53;1.63;;;25.80;28.80;;;;;;4998155;28;20208;-74
2021/03/29 13:14:58;;;;;;;2.00;1.80;;;25.50;28.70;;;;;;5000126;28;20179;-74
2021/03/29 13:17:28;;;;;;;1.60;1.40;;;24.60;30.60;;;;;;4999060;28;20669;-76
2021/03/29 13:19:54;;;;;;;4.13;1.40;;;24.70;29.70;;;;;;5000255;28;20165;-76
2021/03/29 13:22:20;;;;;;;8.87;2.07;;;24.40;31.20;;;;;;5000423;28;20185;-76
2021/03/29 13:24:47;;;;;;;4.00;1.80;;;25.00;29.60;;;;;;4998823;28;20195;-76